Time;durP1;ratioP1;P1;durP2;ratioP2;P2;SDS_P1;SDS_P2;PMS_P1;PMS_P2;Temp;Humidity;BMP_temperature;BMP_pressure;BME280_temperature;BME280_humidity;BME280_pressure;Samples;Min_cycle;Max_cycle;Signal;HPM_P1;HPM_P2
2021/10/22 00:01:09;;;;;;;;;;;20.10;53.80;;;;;;4999016;28;20374;-54
2021/10/22 00:03:37;;;;;;;;;;;20.10;53.70;;;;;;4999289;28;19925;-52
2021/10/22 00:06:04;;;;;;;;;;;20.10;53.70;;;;;;4998799;28;19925;-56
2021/10/22 00:08:31;;;;;;;;;;;20.10;53.80;;;;;;5014645;28;19926;-52
2021/10/22 00:10:58;;;;;;;;;;;20.10;53.70;;;;;;5015274;28;19975;-56
2021/10/22 00:13:26;;;;;;;;;;;20.10;53.70;;;;;;4998462;28;19980;-54
2021/10/22 00:15:53;;;;;;;;;;;20.10;53.70;;;;;;5015174;28;19926;-53
2021/10/22 00:18:20;;;;;;;;;;;20.10;53.70;;;;;;5014852;28;20032;-52
2021/10/22 00:20:48;;;;;;;;;;;20.10;53.70;;;;;;5014020;28;19972;-54
2021/10/22 00:23:15;;;;;;;;;;;20.10;53.70;;;;;;5014722;28;19932;-54
2021/10/22 00:25:42;;;;;;;;;;;20.10;53.60;;;;;;5014882;28;19937;-53
2021/10/22 00:28:09;;;;;;;;;;;20.10;53.60;;;;;;5014013;28;20344;-51
2021/10/22 00:30:36;;;;;;;;;;;20.00;53.60;;;;;;5014913;28;19948;-53
2021/10/22 00:33:03;;;;;;;;;;;20.10;53.70;;;;;;5014651;28;19926;-56
2021/10/22 00:35:30;;;;;;;;;;;20.00;53.60;;;;;;5006974;28;19961;-56
2021/10/22 00:37:58;;;;;;;;;;;20.10;53.60;;;;;;4998325;28;19953;-54
2021/10/22 00:40:26;;;;;;;;;;;20.10;53.70;;;;;;5005424;28;19987;-53
2021/10/22 00:42:54;;;;;;;;;;;20.10;53.60;;;;;;5008322;28;19926;-56
2021/10/22 00:45:22;;;;;;;;;;;20.10;53.60;;;;;;4998131;28;20385;-55
2021/10/22 00:47:49;;;;;;;;;;;20.10;53.60;;;;;;5003192;28;19925;-57
2021/10/22 00:50:17;;;;;;;;;;;20.10;53.60;;;;;;5011098;28;19926;-57
2021/10/22 00:52:45;;;;;;;;;;;20.00;53.50;;;;;;5000740;28;20416;-56
2021/10/22 00:55:12;;;;;;;;;;;20.00;53.50;;;;;;5014126;28;19983;-54
2021/10/22 00:57:40;;;;;;;;;;;20.10;53.50;;;;;;5013087;28;20344;-53
2021/10/22 01:00:07;;;;;;;;;;;20.00;53.50;;;;;;4997979;28;19929;-54
2021/10/22 01:02:35;;;;;;;;;;;20.10;53.60;;;;;;5014452;28;19933;-55
2021/10/22 01:05:06;;;;;;;;;;;20.00;53.50;;;;;;4997369;28;20332;-53
2021/10/22 01:07:33;;;;;;;;;;;20.10;53.50;;;;;;5013032;28;19930;-57
2021/10/22 01:10:00;;;;;;;;;;;20.00;53.40;;;;;;5014176;28;19925;-55
2021/10/22 01:12:27;;;;;;;;;;;20.00;53.40;;;;;;4997466;28;20290;-56
2021/10/22 01:14:54;;;;;;;;;;;20.00;53.40;;;;;;5012558;28;19925;-53
2021/10/22 01:17:32;;;;;;;;;;;20.00;53.40;;;;;;5012622;28;20374;-55
2021/10/22 01:19:59;;;;;;;;;;;20.00;53.40;;;;;;5013711;28;19976;-53
2021/10/22 01:22:26;;;;;;;;;;;20.00;54.00;;;;;;5014025;28;20310;-54
2021/10/22 01:24:53;;;;;;;;;;;20.00;53.40;;;;;;5013990;28;19925;-53
2021/10/22 01:27:22;;;;;;;;;;;20.00;53.40;;;;;;5013706;28;19999;-56
2021/10/22 01:29:52;;;;;;;;;;;20.00;53.40;;;;;;5012733;28;19977;-56
2021/10/22 01:32:19;;;;;;;;;;;20.00;53.40;;;;;;5013980;28;19933;-52
2021/10/22 01:34:46;;;;;;;;;;;20.00;53.40;;;;;;5013723;28;19925;-54
2021/10/22 01:37:13;;;;;;;;;;;20.00;53.40;;;;;;5013695;28;20342;-56
2021/10/22 01:39:40;;;;;;;;;;;20.00;53.40;;;;;;5005109;28;20277;-57
2021/10/22 01:42:07;;;;;;;;;;;20.00;53.40;;;;;;4997323;28;19965;-55
2021/10/22 01:44:35;;;;;;;;;;;20.00;53.40;;;;;;5004306;28;19925;-57
2021/10/22 01:47:02;;;;;;;;;;;20.00;53.40;;;;;;5007739;28;19980;-53
2021/10/22 01:49:29;;;;;;;;;;;20.00;53.40;;;;;;4996840;28;19926;-56
2021/10/22 01:51:56;;;;;;;;;;;20.00;53.50;;;;;;4997215;28;19965;-54
2021/10/22 01:54:23;;;;;;;;;;;20.00;53.40;;;;;;4996761;28;20385;-56
2021/10/22 01:56:50;;;;;;;;;;;20.00;53.40;;;;;;4998915;28;19984;-56
2021/10/22 01:59:18;;;;;;;;;;;20.00;53.40;;;;;;5013055;28;19925;-56
2021/10/22 02:01:45;;;;;;;;;;;20.00;53.40;;;;;;5012879;28;19980;-55
2021/10/22 02:04:12;;;;;;;;;;;20.00;53.40;;;;;;5012256;28;19932;-55
2021/10/22 02:06:39;;;;;;;;;;;20.00;53.40;;;;;;5012791;28;19980;-56
2021/10/22 02:09:06;;;;;;;;;;;20.00;53.40;;;;;;5045147;28;19926;-55
2021/10/22 02:11:33;;;;;;;;;;;20.00;53.40;;;;;;4994851;28;19934;-57
2021/10/22 02:14:00;;;;;;;;;;;20.00;53.50;;;;;;5013115;28;19971;-56
2021/10/22 02:16:27;;;;;;;;;;;20.00;53.40;;;;;;5012710;28;19925;-54
2021/10/22 02:18:54;;;;;;;;;;;20.00;53.40;;;;;;5012757;28;20333;-55
2021/10/22 02:21:21;;;;;;;;;;;20.00;53.40;;;;;;4999017;28;20005;-55
2021/10/22 02:23:48;;;;;;;;;;;20.00;53.40;;;;;;5009334;28;19925;-54
2021/10/22 02:26:15;;;;;;;;;;;20.00;53.50;;;;;;5012706;28;19925;-56
2021/10/22 02:28:42;;;;;;;;;;;20.00;53.40;;;;;;5013229;28;19979;-56
2021/10/22 02:31:09;;;;;;;;;;;20.00;53.40;;;;;;5012665;28;20344;-54
2021/10/22 02:33:36;;;;;;;;;;;20.00;53.40;;;;;;5012298;28;19926;-56
2021/10/22 02:36:04;;;;;;;;;;;20.00;53.40;;;;;;5004893;28;19929;-52
2021/10/22 02:38:31;;;;;;;;;;;20.00;53.40;;;;;;4996454;28;19972;-55
2021/10/22 02:40:59;;;;;;;;;;;20.00;53.40;;;;;;4996551;28;19926;-55
2021/10/22 02:43:26;;;;;;;;;;;20.00;53.40;;;;;;4996739;28;20295;-56
2021/10/22 02:45:53;;;;;;;;;;;20.00;53.40;;;;;;5000735;28;19929;-53
2021/10/22 02:48:20;;;;;;;;;;;20.00;53.40;;;;;;5024310;28;20385;-55
2021/10/22 02:50:47;;;;;;;;;;;20.00;53.30;;;;;;4996238;28;19930;-55
2021/10/22 02:53:14;;;;;;;;;;;20.00;53.40;;;;;;4996146;28;19956;-57
2021/10/22 02:55:41;;;;;;;;;;;20.00;53.30;;;;;;4996068;28;20349;-56
2021/10/22 02:58:08;;;;;;;;;;;20.10;53.40;;;;;;4995908;28;19968;-56
2021/10/22 03:00:35;;;;;;;;;;;20.00;53.30;;;;;;5013264;28;20003;-56
2021/10/22 03:03:03;;;;;;;;;;;20.00;53.30;;;;;;5015713;28;19932;-57
2021/10/22 03:05:31;;;;;;;;;;;20.00;53.40;;;;;;5015635;28;20221;-57
2021/10/22 03:07:58;;;;;;;;;;;20.00;53.30;;;;;;5016760;28;19925;-55
2021/10/22 03:10:26;;;;;;;;;;;20.00;53.30;;;;;;5015210;28;19973;-56
2021/10/22 03:12:53;;;;;;;;;;;20.10;53.40;;;;;;5016181;28;19933;-56
2021/10/22 03:15:20;;;;;;;;;;;20.00;53.30;;;;;;5015207;28;19926;-55
2021/10/22 03:17:47;;;;;;;;;;;20.00;53.30;;;;;;5006696;28;19926;-56
2021/10/22 03:20:14;;;;;;;;;;;20.00;53.30;;;;;;5000128;28;19930;-54
2021/10/22 03:22:41;;;;;;;;;;;20.00;53.30;;;;;;5011785;28;19976;-56
2021/10/22 03:25:08;;;;;;;;;;;20.10;53.50;;;;;;5016402;28;19976;-54
2021/10/22 03:27:35;;;;;;;;;;;20.10;53.40;;;;;;5006027;28;19930;-56
2021/10/22 03:30:03;;;;;;;;;;;20.10;53.40;;;;;;4999789;28;20043;-56
2021/10/22 03:32:32;;;;;;;;;;;20.10;53.40;;;;;;5007771;28;19929;-56
2021/10/22 03:35:03;;;;;;;;;;;20.00;53.30;;;;;;5015998;28;19926;-53
2021/10/22 03:37:30;;;;;;;;;;;20.10;53.40;;;;;;5009112;28;19941;-55
2021/10/22 03:39:57;;;;;;;;;;;20.10;53.40;;;;;;4999646;28;19925;-56
2021/10/22 03:42:24;;;;;;;;;;;20.10;53.40;;;;;;4999708;28;20296;-57
2021/10/22 03:44:51;;;;;;;;;;;20.10;53.40;;;;;;5003894;28;19929;-53
2021/10/22 03:47:18;;;;;;;;;;;20.10;53.40;;;;;;5012830;28;19984;-57
2021/10/22 03:49:45;;;;;;;;;;;20.10;53.40;;;;;;4999696;28;20273;-57
2021/10/22 03:52:12;;;;;;;;;;;20.10;53.40;;;;;;5000313;28;19926;-56
2021/10/22 03:54:39;;;;;;;;;;;20.10;53.30;;;;;;5014694;28;19976;-55
2021/10/22 03:57:06;;;;;;;;;;;20.10;53.30;;;;;;5014350;28;19944;-51
2021/10/22 03:59:33;;;;;;;;;;;20.10;53.40;;;;;;5014047;28;20289;-55
2021/10/22 04:02:00;;;;;;;;;;;20.10;53.40;;;;;;5013871;28;19950;-54
2021/10/22 04:04:29;;;;;;;;;;;20.10;53.40;;;;;;5013342;28;19925;-57
2021/10/22 04:06:56;;;;;;;;;;;20.10;53.40;;;;;;5014291;28;19925;-55
2021/10/22 04:09:26;;;;;;;;;;;20.10;53.40;;;;;;5013851;28;19945;-54
2021/10/22 04:11:53;;;;;;;;;;;20.10;53.40;;;;;;5013798;28;19933;-54
2021/10/22 04:14:20;;;;;;;;;;;20.10;53.40;;;;;;5014312;28;19968;-53
2021/10/22 04:16:47;;;;;;;;;;;20.10;53.40;;;;;;5013952;28;19925;-55
2021/10/22 04:19:14;;;;;;;;;;;20.10;53.40;;;;;;5014182;28;19926;-57
2021/10/22 04:21:41;;;;;;;;;;;20.10;53.40;;;;;;5014578;28;19956;-54
2021/10/22 04:24:08;;;;;;;;;;;20.10;53.40;;;;;;5012854;28;19926;-56
2021/10/22 04:26:35;;;;;;;;;;;20.10;53.50;;;;;;5004597;28;19929;-56
2021/10/22 04:29:02;;;;;;;;;;;20.10;53.40;;;;;;4997638;28;19929;-55
2021/10/22 04:31:29;;;;;;;;;;;20.10;53.50;;;;;;5005263;28;19925;-53
2021/10/22 04:33:56;;;;;;;;;;;20.10;53.50;;;;;;5013931;28;19932;-56
2021/10/22 04:36:23;;;;;;;;;;;20.10;53.50;;;;;;5013739;28;19936;-53
2021/10/22 04:41:36;;;;;;;;;;;20.10;53.50;;;;;;5007150;28;19968;-52
2021/10/22 04:44:03;;;;;;;;;;;20.10;53.50;;;;;;5001773;28;19987;-54
2021/10/22 04:46:30;;;;;;;;;;;20.10;53.50;;;;;;5013262;28;20443;-56
2021/10/22 04:48:57;;;;;;;;;;;20.10;53.50;;;;;;5012326;28;19926;-55
2021/10/22 04:51:24;;;;;;;;;;;20.10;53.50;;;;;;5012183;28;20290;-56
2021/10/22 04:53:50;;;;;;;;;;;20.10;53.50;;;;;;4942327;28;1973447;-54
2021/10/22 04:56:17;;;;;;;;;;;20.10;53.50;;;;;;5014514;28;19930;-55
2021/10/22 04:58:47;;;;;;;;;;;20.10;53.50;;;;;;5014457;28;19969;-56
2021/10/22 05:01:14;;;;;;;;;;;20.10;53.50;;;;;;4997279;28;19932;-56
2021/10/22 05:03:42;;;;;;;;;;;20.10;53.60;;;;;;5013772;28;20301;-55
2021/10/22 05:06:10;;;;;;;;;;;20.10;54.10;;;;;;5014386;28;19925;-54
2021/10/22 05:08:38;;;;;;;;;;;20.10;53.50;;;;;;5013409;28;19925;-54
2021/10/22 05:11:05;;;;;;;;;;;20.10;53.60;;;;;;5014405;28;19929;-56
2021/10/22 05:13:32;;;;;;;;;;;20.10;53.60;;;;;;5013080;28;19930;-53
2021/10/22 05:15:59;;;;;;;;;;;20.10;53.60;;;;;;5013845;28;19979;-56
2021/10/22 05:18:28;;;;;;;;;;;20.10;53.60;;;;;;4999990;28;19929;-56
2021/10/22 05:20:56;;;;;;;;;;;20.10;53.60;;;;;;4997994;28;19926;-55
2021/10/22 05:23:23;;;;;;;;;;;20.10;53.60;;;;;;5008962;28;19976;-55
2021/10/22 05:25:50;;;;;;;;;;;20.10;53.60;;;;;;5002681;28;19976;-53
2021/10/22 05:28:17;;;;;;;;;;;20.10;54.20;;;;;;4997439;28;19926;-56
2021/10/22 05:30:44;;;;;;;;;;;20.10;53.70;;;;;;5007032;28;19960;-57
2021/10/22 05:33:12;;;;;;;;;;;20.10;53.60;;;;;;5005493;28;19992;-56
2021/10/22 05:35:40;;;;;;;;;;;20.10;53.70;;;;;;5005039;28;20289;-54
2021/10/22 05:38:07;;;;;;;;;;;20.10;53.70;;;;;;5013513;28;20401;-56
2021/10/22 05:40:35;;;;;;;;;;;20.10;53.70;;;;;;5013263;28;19937;-56
2021/10/22 05:43:04;;;;;;;;;;;20.10;53.70;;;;;;5012517;28;19991;-56
2021/10/22 05:45:30;;;;;;;;;;;20.10;53.70;;;;;;5012398;28;20263;-57
2021/10/22 05:47:59;;;;;;;;;;;20.10;53.70;;;;;;5011442;28;19933;-57
2021/10/22 05:50:27;;;;;;;;;;;20.10;53.70;;;;;;5012277;28;19925;-56
2021/10/22 05:52:54;;;;;;;;;;;20.10;53.70;;;;;;5010720;28;19980;-55
2021/10/22 05:55:21;;;;;;;;;;;20.10;53.70;;;;;;4995919;28;20003;-54
2021/10/22 05:57:48;;;;;;;;;;;20.10;53.80;;;;;;4996246;28;20238;-56
2021/10/22 06:00:15;;;;;;;;;;;20.10;53.70;;;;;;4994829;28;19925;-56
2021/10/22 06:02:42;;;;;;;;;;;20.10;53.80;;;;;;5011632;28;19925;-54
2021/10/22 06:05:10;;;;;;;;;;;20.10;53.80;;;;;;4993788;28;20012;-53
2021/10/22 06:07:38;;;;;;;;;;;20.10;53.80;;;;;;4995723;28;19948;-55
2021/10/22 06:10:05;;;;;;;;;;;20.20;53.90;;;;;;5011190;28;19925;-53
2021/10/22 06:12:32;;;;;;;;;;;20.20;53.90;;;;;;5010967;28;19929;-53
2021/10/22 06:15:00;;;;;;;;;;;20.20;53.90;;;;;;5012507;28;19932;-55
2021/10/22 06:17:27;;;;;;;;;;;20.20;53.90;;;;;;4998768;28;19926;-55
2021/10/22 06:19:57;;;;;;;;;;;20.20;53.90;;;;;;5007417;28;19999;-56
2021/10/22 06:22:50;;;;;;;;;;;20.20;54.00;;;;;;5011011;28;19929;-56
2021/10/22 06:25:18;;;;;;;;;;;20.20;54.10;;;;;;5011980;28;19933;-55
2021/10/22 06:27:45;;;;;;;;;;;20.20;54.10;;;;;;5011801;28;20382;-55
2021/10/22 06:30:12;;;;;;;;;;;20.30;54.20;;;;;;5011491;28;19929;-56
2021/10/22 06:32:39;;;;;;;;;;;20.30;54.40;;;;;;5014435;28;19975;-55
2021/10/22 06:35:06;;;;;;;;;;;20.30;54.50;;;;;;4995168;28;20382;-55
2021/10/22 06:37:33;;;;;;;;;;;20.30;54.50;;;;;;4995835;28;20338;-54
2021/10/22 06:40:00;;;;;;;;;;;20.30;54.70;;;;;;5004345;28;20435;-57
2021/10/22 06:42:27;;;;;;;;;;;20.30;54.80;;;;;;5011581;28;19925;-54
2021/10/22 06:44:54;;;;;;;;;;;20.40;55.00;;;;;;5004750;28;19929;-56
2021/10/22 06:47:21;;;;;;;;;;;20.40;54.90;;;;;;5001777;28;20378;-54
2021/10/22 06:49:48;;;;;;;;;;;20.40;55.00;;;;;;5011708;28;19979;-56
2021/10/22 06:52:15;;;;;;;;;;;20.40;55.10;;;;;;5007707;28;20441;-55
2021/10/22 06:54:42;;;;;;;;;;;20.40;55.20;;;;;;4998663;28;19925;-54
2021/10/22 06:57:09;;;;;;;;;;;20.40;55.20;;;;;;5011411;28;19937;-52
2021/10/22 06:59:36;;;;;;;;;;;20.40;55.20;;;;;;5010696;28;19979;-54
2021/10/22 07:02:03;;;;;;;;;;;20.50;55.30;;;;;;5011273;28;19926;-52
2021/10/22 07:04:30;;;;;;;;;;;20.40;54.90;;;;;;5011037;28;20382;-55
2021/10/22 07:07:16;;;;;;;;;;;20.40;54.40;;;;;;5011786;28;19926;-52
2021/10/22 07:09:44;;;;;;;;;;;20.30;54.20;;;;;;4996023;28;19961;-54
2021/10/22 07:12:11;;;;;;;;;;;20.30;54.00;;;;;;5010706;28;19937;-54
2021/10/22 07:14:47;;;;;;;;;;;20.30;54.20;;;;;;5010785;28;19960;-54
2021/10/22 07:17:15;;;;;;;;;;;20.30;54.40;;;;;;5011555;28;19930;-56
2021/10/22 07:19:42;;;;;;;;;;;20.30;54.20;;;;;;5010885;28;20008;-55
2021/10/22 07:22:13;;;;;;;;;;;20.30;54.20;;;;;;5010538;28;19925;-56
2021/10/22 07:24:40;;;;;;;;;;;20.30;54.20;;;;;;4994095;28;19930;-55
2021/10/22 07:27:07;;;;;;;;;;;20.30;54.20;;;;;;4994940;28;20329;-53
2021/10/22 07:29:35;;;;;;;;;;;20.40;54.30;;;;;;5010938;28;19979;-54
2021/10/22 07:32:02;;;;;;;;;;;20.40;54.40;;;;;;4996593;28;19925;-54
2021/10/22 07:34:29;;;;;;;;;;;20.40;54.50;;;;;;4994751;28;20436;-52
2021/10/22 07:36:55;;;;;;;;;;;20.40;54.50;;;;;;4995150;28;19926;-54
2021/10/22 07:39:22;;;;;;;;;;;20.40;54.60;;;;;;4995617;28;19926;-52
2021/10/22 07:42:05;;;;;;;;;;;20.40;54.60;;;;;;5007498;28;19936;-56
2021/10/22 07:44:50;;;;;;;;;;;20.40;54.60;;;;;;5011019;28;19968;-55
2021/10/22 07:47:17;;;;;;;;;;;20.50;54.80;;;;;;5012835;28;19956;-55
2021/10/22 07:49:47;;;;;;;;;;;20.50;54.80;;;;;;5002255;28;19981;-55
2021/10/22 07:52:17;;;;;;;;;;;20.50;54.80;;;;;;4998636;28;20390;-54
2021/10/22 07:54:45;;;;;;;;;;;20.50;54.80;;;;;;4998531;28;20473;-50
2021/10/22 07:57:12;;;;;;;;;;;20.50;54.90;;;;;;5009296;28;20012;-53
2021/10/22 07:59:39;;;;;;;;;;;20.50;55.00;;;;;;5013764;28;20341;-55
2021/10/22 08:02:10;;;;;;;;;;;20.50;54.90;;;;;;5013367;28;19932;-54
2021/10/22 08:04:43;;;;;;;;;;;20.50;54.90;;;;;;5014451;28;19973;-51
2021/10/22 08:07:15;;;;;;;;;;;20.50;55.00;;;;;;5014178;28;20459;-56
2021/10/22 08:09:42;;;;;;;;;;;20.50;55.20;;;;;;5014808;28;19926;-54
2021/10/22 08:12:12;;;;;;;;;;;20.60;55.30;;;;;;5013508;28;19926;-53
2021/10/22 08:14:41;;;;;;;;;;;20.60;55.30;;;;;;5013750;28;20385;-55
2021/10/22 08:17:10;;;;;;;;;;;20.60;55.40;;;;;;5010253;28;20326;-55
2021/10/22 08:19:37;;;;;;;;;;;20.60;55.50;;;;;;4998223;28;19929;-54
2021/10/22 08:24:49;;;;;;;;;;;20.60;55.40;;;;;;5009158;28;19926;-54
2021/10/22 08:27:16;;;;;;;;;;;20.60;55.40;;;;;;5002492;28;19925;-55
2021/10/22 08:29:43;;;;;;;;;;;20.60;55.40;;;;;;5013977;28;19930;-51
2021/10/22 08:32:10;;;;;;;;;;;20.60;55.60;;;;;;5011201;28;19930;-54
2021/10/22 08:34:37;;;;;;;;;;;20.60;55.50;;;;;;4999230;28;19971;-58
2021/10/22 08:37:04;;;;;;;;;;;20.60;55.30;;;;;;5013297;28;20358;-53
2021/10/22 08:39:31;;;;;;;;;;;20.60;55.50;;;;;;4997089;28;19926;-53
2021/10/22 08:41:58;;;;;;;;;;;20.60;55.50;;;;;;4996632;28;19926;-55
2021/10/22 08:44:27;;;;;;;;;;;20.60;55.70;;;;;;5013933;28;19972;-56
2021/10/22 08:46:55;;;;;;;;;;;20.60;55.70;;;;;;4996388;28;20004;-52
2021/10/22 08:49:22;;;;;;;;;;;20.60;55.70;;;;;;5013077;28;20286;-57
2021/10/22 08:51:49;;;;;;;;;;;20.60;55.80;;;;;;5012951;28;19971;-52
2021/10/22 08:54:16;;;;;;;;;;;20.60;56.00;;;;;;5012180;28;19925;-55
2021/10/22 08:56:43;;;;;;;;;;;20.70;56.00;;;;;;5012314;28;19933;-57
2021/10/22 08:59:10;;;;;;;;;;;20.70;56.00;;;;;;5012377;28;19977;-54
2021/10/22 09:02:01;;;;;;;;;;;20.70;56.00;;;;;;5001008;28;19926;-54
2021/10/22 09:04:35;;;;;;;;;;;20.70;56.10;;;;;;4997586;28;20336;-52
2021/10/22 09:07:02;;;;;;;;;;;20.80;56.10;;;;;;4997697;28;19925;-51
2021/10/22 09:09:29;;;;;;;;;;;20.70;56.00;;;;;;4997603;28;19926;-55
2021/10/22 09:11:57;;;;;;;;;;;20.80;56.20;;;;;;5010643;28;19980;-53
2021/10/22 09:14:25;;;;;;;;;;;20.80;56.00;;;;;;5001098;28;19925;-55
2021/10/22 09:16:53;;;;;;;;;;;20.80;55.90;;;;;;5008633;28;19961;-57
2021/10/22 09:19:32;;;;;;;;;;;20.70;55.90;;;;;;5002854;28;19988;-55
2021/10/22 09:22:18;;;;;;;;;;;20.70;55.90;;;;;;5007878;28;20587;-54
2021/10/22 09:24:52;;;;;;;;;;;20.80;55.90;;;;;;5013808;28;19929;-56
2021/10/22 09:27:39;;;;;;;;;;;20.80;55.80;;;;;;5000585;28;19926;-52
2021/10/22 09:30:08;;;;;;;;;;;20.80;55.80;;;;;;5012252;28;20448;-56
2021/10/22 09:32:44;;;;;;;;;;;20.80;55.80;;;;;;5012635;28;20675;-55
2021/10/22 09:35:11;;;;;;;;;;;20.80;55.80;;;;;;5013635;28;19925;-55
2021/10/22 09:37:39;;;;;;;;;;;20.70;55.80;;;;;;5000016;28;19925;-55
2021/10/22 09:40:07;;;;;;;;;;;20.70;55.90;;;;;;5009893;28;19976;-54
2021/10/22 09:42:34;;;;;;;;;;;20.70;55.90;;;;;;5001665;28;19980;-54
2021/10/22 09:45:01;;;;;;;;;;;20.70;55.90;;;;;;5007074;28;19925;-56
2021/10/22 09:47:30;;;;;;;;;;;20.70;56.00;;;;;;5003423;28;19925;-56
2021/10/22 09:50:06;;;;;;;;;;;20.70;56.00;;;;;;5006624;28;19979;-57
2021/10/22 09:52:33;;;;;;;;;;;20.70;56.10;;;;;;5004155;28;19973;-54
2021/10/22 09:55:05;;;;;;;;;;;20.70;56.10;;;;;;4996942;28;20378;-53
2021/10/22 09:57:32;;;;;;;;;;;20.70;56.10;;;;;;4997094;28;19966;-56
2021/10/22 10:00:06;;;;;;;;;;;20.70;56.10;;;;;;5004805;28;19925;-56
2021/10/22 10:02:34;;;;;;;;;;;20.70;56.10;;;;;;5044265;28;19925;-54
2021/10/22 10:05:06;;;;;;;;;;;20.70;56.20;;;;;;5013102;28;19926;-53
2021/10/22 10:07:40;;;;;;;;;;;20.70;56.20;;;;;;5013315;28;19932;-57
2021/10/22 10:10:08;;;;;;;;;;;20.70;56.20;;;;;;5011581;28;19976;-55
2021/10/22 10:12:38;;;;;;;;;;;20.70;56.20;;;;;;5011974;28;20317;-55
2021/10/22 10:15:07;;;;;;;;;;;20.70;56.20;;;;;;5012159;28;19925;-56
2021/10/22 10:17:39;;;;;;;;;;;20.70;56.20;;;;;;5011288;28;20151;-55
2021/10/22 10:20:07;;;;;;;;;;;20.60;56.10;;;;;;5013014;28;20428;-56
2021/10/22 10:22:36;;;;;;;;;;;20.60;56.10;;;;;;5009740;28;19930;-55
2021/10/22 10:25:05;;;;;;;;;;;20.60;56.10;;;;;;4998847;28;20378;-56
2021/10/22 10:27:47;;;;;;;;;;;20.60;56.10;;;;;;5010956;28;19975;-56
2021/10/22 10:30:15;;;;;;;;;;;20.60;56.10;;;;;;5002900;28;20088;-56
2021/10/22 10:32:42;;;;;;;;;;;20.60;56.10;;;;;;5012863;28;20020;-57
2021/10/22 10:35:10;;;;;;;;;;;20.70;56.10;;;;;;5012014;28;19926;-56
2021/10/22 10:37:42;;;;;;;;;;;20.70;56.10;;;;;;4996524;28;19926;-54
2021/10/22 10:40:22;;;;;;;;;;;20.70;56.00;;;;;;5013043;28;19976;-55
2021/10/22 10:42:57;;;;;;;;;;;20.70;56.00;;;;;;4996277;28;19972;-55
2021/10/22 10:45:24;;;;;;;;;;;20.70;55.90;;;;;;4997136;28;19998;-54
2021/10/22 10:47:52;;;;;;;;;;;20.70;56.00;;;;;;4996330;28;19977;-55
2021/10/22 10:50:38;;;;;;;;;;;20.70;55.90;;;;;;4995512;28;19926;-57
2021/10/22 10:53:07;;;;;;;;;;;20.70;55.90;;;;;;4996770;28;19976;-54
2021/10/22 10:55:40;;;;;;;;;;;20.70;55.90;;;;;;4996720;28;19925;-56
2021/10/22 10:58:06;;;;;;;;;;;20.70;55.90;;;;;;4996424;28;19925;-55
2021/10/22 11:00:35;;;;;;;;;;;20.70;55.90;;;;;;4995111;28;19925;-56
2021/10/22 11:03:05;;;;;;;;;;;20.70;55.90;;;;;;5011949;28;19925;-55
2021/10/22 11:05:45;;;;;;;;;;;20.70;55.90;;;;;;5011965;28;19926;-54
2021/10/22 11:08:16;;;;;;;;;;;20.70;55.90;;;;;;5012346;28;19947;-55
2021/10/22 11:11:08;;;;;;;;;;;20.70;55.90;;;;;;5011938;28;19991;-54
2021/10/22 11:13:47;;;;;;;;;;;20.70;55.90;;;;;;4996695;28;19937;-54
2021/10/22 11:16:20;;;;;;;;;;;20.70;55.90;;;;;;5011347;28;19974;-54
2021/10/22 11:18:51;;;;;;;;;;;20.70;55.90;;;;;;5011070;28;19968;-57
2021/10/22 11:21:19;;;;;;;;;;;20.70;55.90;;;;;;4996626;28;19937;-55
2021/10/22 11:23:47;;;;;;;;;;;20.70;55.90;;;;;;4999556;28;19967;-50
2021/10/22 11:26:18;;;;;;;;;;;20.70;55.80;;;;;;5004198;28;19976;-54
2021/10/22 11:28:49;;;;;;;;;;;20.80;55.90;;;;;;5016394;28;19992;-55
2021/10/22 11:31:33;;;;;;;;;;;20.70;55.80;;;;;;4998777;28;19926;-56
2021/10/22 11:34:02;;;;;;;;;;;20.70;55.70;;;;;;4999704;28;19925;-54
2021/10/22 11:36:30;;;;;;;;;;;20.80;55.90;;;;;;4998457;28;19929;-54
2021/10/22 11:38:58;;;;;;;;;;;20.80;55.70;;;;;;5016096;28;20021;-55
2021/10/22 11:41:25;;;;;;;;;;;20.70;55.70;;;;;;5015833;28;19929;-56
2021/10/22 11:44:01;;;;;;;;;;;20.80;55.70;;;;;;5015688;28;20377;-57
2021/10/22 11:46:41;;;;;;;;;;;20.80;55.70;;;;;;4998120;28;20370;-57
2021/10/22 11:49:08;;;;;;;;;;;20.80;55.60;;;;;;5015474;28;20011;-54
2021/10/22 11:51:36;;;;;;;;;;;20.80;55.60;;;;;;4998845;28;19933;-55
2021/10/22 11:54:04;;;;;;;;;;;20.80;55.60;;;;;;5016142;28;19930;-57
2021/10/22 11:56:34;;;;;;;;;;;20.80;55.50;;;;;;5000019;28;19957;-57
2021/10/22 11:59:01;;;;;;;;;;;20.80;55.50;;;;;;5013581;28;19926;-56
2021/10/22 12:01:28;;;;;;;;;;;20.90;55.60;;;;;;5014315;28;19925;-55
2021/10/22 12:03:55;;;;;;;;;;;20.80;55.40;;;;;;5015148;28;19972;-55
2021/10/22 12:06:23;;;;;;;;;;;20.90;55.50;;;;;;5015187;28;20413;-55
2021/10/22 12:08:51;;;;;;;;;;;20.90;55.50;;;;;;5015132;28;19925;-57
2021/10/22 12:11:19;;;;;;;;;;;20.80;55.50;;;;;;5015425;28;19930;-55
2021/10/22 12:13:46;;;;;;;;;;;20.80;55.50;;;;;;5015456;28;19925;-57
2021/10/22 12:16:14;;;;;;;;;;;20.80;55.50;;;;;;5015145;28;19972;-54
2021/10/22 12:18:45;;;;;;;;;;;20.80;55.50;;;;;;5007179;28;19937;-54
2021/10/22 12:21:12;;;;;;;;;;;20.80;55.50;;;;;;5006430;28;20419;-54
2021/10/22 12:23:39;;;;;;;;;;;20.80;55.50;;;;;;5007995;28;20386;-57
2021/10/22 12:26:22;;;;;;;;;;;20.80;55.50;;;;;;5004694;28;20337;-54
2021/10/22 12:28:57;;;;;;;;;;;20.80;55.50;;;;;;5008112;28;19930;-55
2021/10/22 12:31:31;;;;;;;;;;;20.80;55.50;;;;;;4998616;28;20009;-56
2021/10/22 12:34:05;;;;;;;;;;;20.80;55.50;;;;;;4998416;28;19973;-56
2021/10/22 12:36:34;;;;;;;;;;;20.80;55.50;;;;;;4998495;28;19980;-53
2021/10/22 12:39:01;;;;;;;;;;;20.80;55.50;;;;;;4999254;28;19977;-56
2021/10/22 12:41:28;;;;;;;;;;;20.80;55.60;;;;;;5004017;28;19968;-56
2021/10/22 12:44:13;;;;;;;;;;;20.80;55.60;;;;;;5009998;28;20415;-56
2021/10/22 12:46:57;;;;;;;;;;;20.80;55.60;;;;;;4998601;28;19926;-56
2021/10/22 12:49:25;;;;;;;;;;;20.80;55.60;;;;;;5005153;28;20012;-57
2021/10/22 12:51:55;;;;;;;;;;;20.80;55.60;;;;;;5013527;28;19987;-54
2021/10/22 12:54:22;;;;;;;;;;;20.80;55.60;;;;;;5012936;28;19926;-56
2021/10/22 12:56:56;;;;;;;;;;;20.80;55.60;;;;;;5013116;28;19925;-55
2021/10/22 12:59:25;;;;;;;;;;;20.80;55.60;;;;;;5014328;28;20328;-53
2021/10/22 13:01:55;;;;;;;;;;;20.80;55.60;;;;;;5010061;28;19926;-55
2021/10/22 13:04:24;;;;;;;;;;;20.80;55.60;;;;;;5001730;28;19975;-54
2021/10/22 13:22:50;;;;;;;;;;;20.80;55.60;;;;;;5004673;28;19926;-56
2021/10/22 13:25:17;;;;;;;;;;;20.80;55.60;;;;;;5006988;28;19926;-54
2021/10/22 13:27:44;;;;;;;;;;;20.80;55.60;;;;;;4997327;28;19937;-56
2021/10/22 13:30:13;;;;;;;;;;;20.80;55.60;;;;;;5016361;28;19925;-55
2021/10/22 13:32:41;;;;;;;;;;;20.80;55.60;;;;;;5012380;28;20403;-56
2021/10/22 13:35:08;;;;;;;;;;;20.80;55.60;;;;;;5009968;28;19929;-55
2021/10/22 13:37:39;;;;;;;;;;;20.80;55.70;;;;;;4997418;28;19956;-53
2021/10/22 13:40:06;;;;;;;;;;;20.80;55.70;;;;;;4999837;28;19926;-55
2021/10/22 13:42:34;;;;;;;;;;;20.80;55.60;;;;;;4997850;28;20514;-56
2021/10/22 13:45:02;;;;;;;;;;;20.80;55.60;;;;;;5012256;28;20408;-54
2021/10/22 13:47:31;;;;;;;;;;;20.80;55.60;;;;;;5013403;28;19925;-53
2021/10/22 13:49:57;;;;;;;;;;;20.80;55.60;;;;;;4996089;28;19926;-54
2021/10/22 13:52:25;;;;;;;;;;;20.80;55.70;;;;;;5027595;28;19929;-56
2021/10/22 13:54:51;;;;;;;;;;;20.80;55.70;;;;;;5013314;28;20297;-52
2021/10/22 13:57:19;;;;;;;;;;;20.80;55.70;;;;;;4996241;28;19925;-53
2021/10/22 13:59:46;;;;;;;;;;;20.80;55.70;;;;;;5012100;28;19926;-53
2021/10/22 14:02:13;;;;;;;;;;;20.80;55.70;;;;;;4997636;28;19972;-55
2021/10/22 14:04:40;;;;;;;;;;;20.80;55.70;;;;;;4996417;28;19926;-53
2021/10/22 14:07:07;;;;;;;;;;;20.80;55.70;;;;;;5009787;28;19926;-57
2021/10/22 14:09:35;;;;;;;;;;;20.80;55.70;;;;;;5012545;28;19956;-54
2021/10/22 14:12:17;;;;;;;;;;;20.80;55.70;;;;;;5001368;28;19926;-56
2021/10/22 14:30:42;;;;;;;;;;;20.80;56.30;;;;;;5011384;28;20325;-58
2021/10/22 14:33:09;;;;;;;;;;;20.80;56.00;;;;;;5011391;28;19979;-54
2021/10/22 14:35:36;;;;;;;;;;;20.80;56.00;;;;;;5012429;28;19930;-58
2021/10/22 14:38:03;;;;;;;;;;;20.80;56.10;;;;;;5012053;28;19925;-54
2021/10/22 14:40:33;;;;;;;;;;;20.80;56.70;;;;;;5011133;28;19925;-54
2021/10/22 14:43:02;;;;;;;;;;;20.80;56.70;;;;;;5011588;28;19925;-58
2021/10/22 14:48:04;;;;;;;;;;;20.90;57.10;;;;;;5011166;28;19926;-56
2021/10/22 14:50:31;;;;;;;;;;;20.80;57.20;;;;;;5001325;28;19929;-58
2021/10/22 14:55:33;;;;;;;;;;;20.80;57.40;;;;;;5012737;28;19925;-54
2021/10/22 14:58:17;;;;;;;;;;;20.90;57.40;;;;;;5016675;28;19929;-56
2021/10/22 15:00:44;;;;;;;;;;;20.80;57.40;;;;;;5015468;28;19973;-57
2021/10/22 15:03:12;;;;;;;;;;;20.90;57.70;;;;;;5016252;28;19926;-55
2021/10/22 15:05:39;;;;;;;;;;;20.80;57.50;;;;;;5016359;28;19926;-57
2021/10/22 15:08:09;;;;;;;;;;;20.80;57.70;;;;;;5016574;28;19925;-57